Time;durP1;ratioP1;P1;durP2;ratioP2;P2;SDS_P1;SDS_P2;PMS_P1;PMS_P2;Temp;Humidity;BMP_temperature;BMP_pressure;BME280_temperature;BME280_humidity;BME280_pressure;Samples;Min_cycle;Max_cycle;Signal;HPM_P1;HPM_P2
2022/02/15 00:00:43;;;;;;;15.68;7.53;;;;;;;-1.41;56.99;101840.98;1666794;85;25893;-61
2022/02/15 00:03:10;;;;;;;17.15;7.87;;;;;;;-1.37;56.94;101837.35;1668567;85;25836;-62
2022/02/15 00:05:37;;;;;;;17.77;7.72;;;;;;;-1.31;56.91;101837.24;1668388;85;27558;-62
2022/02/15 00:08:04;;;;;;;16.27;8.43;;;;;;;-1.36;57.28;101836.45;1668423;86;25783;-62
2022/02/15 00:10:31;;;;;;;12.25;7.12;;;;;;;-1.49;57.67;101833.67;1668554;85;25995;-62
2022/02/15 00:13:02;;;;;;;16.73;8.40;;;;;;;-1.61;58.58;101830.81;1668255;86;25881;-61
2022/02/15 00:15:27;;;;;;;21.05;7.58;;;;;;;-1.65;58.13;101838.39;1656087;84;25779;-61
2022/02/15 00:17:54;;;;;;;19.87;7.87;;;;;;;-1.65;58.13;101831.33;1656405;85;27477;-62
2022/02/15 00:20:21;;;;;;;25.27;9.63;;;;;;;-1.61;57.98;101840.94;1691483;83;25824;-61
2022/02/15 00:22:48;;;;;;;18.50;8.80;;;;;;;-1.56;58.28;101839.52;1695431;83;25812;-61
2022/02/15 00:25:16;;;;;;;18.17;8.10;;;;;;;-1.48;58.19;101838.91;1716746;82;25773;-61
2022/02/15 00:27:43;;;;;;;19.45;7.40;;;;;;;-1.42;58.09;101832.17;1703982;82;25811;-62
2022/02/15 00:30:12;;;;;;;20.08;7.92;;;;;;;-1.46;58.22;101830.52;1695255;83;27500;-61
2022/02/15 00:32:38;;;;;;;18.15;7.83;;;;;;;-1.47;57.95;101826.57;1695344;83;25748;-62
2022/02/15 00:35:08;;;;;;;16.97;7.62;;;;;;;-1.48;58.29;101824.86;1695284;83;25878;-62
2022/02/15 00:37:34;;;;;;;26.52;8.73;;;;;;;-1.53;58.23;101817.47;1695297;84;25833;-62
2022/02/15 00:40:01;;;;;;;19.00;8.70;;;;;;;-1.52;58.05;101815.25;1695476;84;25860;-61
2022/02/15 00:42:29;;;;;;;16.87;7.95;;;;;;;-1.47;58.21;101819.54;1695724;83;27527;-61
2022/02/15 00:44:56;;;;;;;18.77;8.30;;;;;;;-1.50;57.93;101813.00;1695404;83;25804;-62
2022/02/15 00:47:23;;;;;;;17.67;7.87;;;;;;;-1.47;57.98;101816.02;1694672;84;25774;-62
2022/02/15 00:49:50;;;;;;;19.40;8.60;;;;;;;-1.47;58.08;101813.37;1688925;84;25858;-61
2022/02/15 00:52:17;;;;;;;18.80;8.25;;;;;;;-1.51;58.25;101815.22;1686706;85;25800;-62
2022/02/15 00:54:44;;;;;;;30.43;8.88;;;;;;;-1.52;58.08;101807.34;1661606;85;28229;-62
2022/02/15 00:57:11;;;;;;;17.12;8.08;;;;;;;-1.51;58.19;101811.25;1637905;87;25535;-61
2022/02/15 00:59:38;;;;;;;14.07;7.17;;;;;;;-1.48;57.99;101803.28;1673815;84;25818;-61
2022/02/15 01:02:05;;;;;;;21.33;8.28;;;;;;;-1.49;58.01;101804.64;1638143;87;26428;-62
2022/02/15 01:04:32;;;;;;;16.30;7.75;;;;;;;-1.49;58.12;101797.58;1666807;86;25485;-61
2022/02/15 01:06:59;;;;;;;20.55;8.85;;;;;;;-1.52;57.77;101795.00;1673711;85;27496;-63
2022/02/15 01:09:26;;;;;;;19.87;8.00;;;;;;;-1.51;58.05;101791.92;1647688;86;25802;-61
2022/02/15 01:11:54;;;;;;;15.20;7.65;;;;;;;-1.58;58.27;101793.39;1649478;87;26561;-60
2022/02/15 01:14:21;;;;;;;33.42;8.45;;;;;;;-1.71;58.46;101790.58;1648647;87;25820;-61
2022/02/15 01:16:48;;;;;;;16.10;7.87;;;;;;;-1.79;59.21;101781.95;1650003;87;25734;-61
2022/02/15 01:19:15;;;;;;;19.32;7.37;;;;;;;-1.86;59.10;101781.67;1641747;84;27505;-62
2022/02/15 01:21:42;;;;;;;18.82;7.78;;;;;;;-1.91;59.02;101772.53;1673581;85;25739;-61
2022/02/15 01:24:09;;;;;;;20.30;7.87;;;;;;;-1.91;59.51;101773.84;1657700;84;25725;-61
2022/02/15 01:26:36;;;;;;;19.50;9.13;;;;;;;-1.96;60.37;101776.58;1666609;84;26474;-61
2022/02/15 01:29:04;;;;;;;19.40;7.95;;;;;;;-1.94;59.97;101771.27;1666717;85;25745;-61
2022/02/15 01:31:31;;;;;;;15.90;6.95;;;;;;;-1.93;60.17;101769.90;1666725;84;27137;-61
2022/02/15 01:33:57;;;;;;;15.68;7.62;;;;;;;-1.98;60.72;101767.82;1666707;86;25845;-61
2022/02/15 01:36:24;;;;;;;16.10;6.80;;;;;;;-2.00;60.81;101766.98;1660468;85;25893;-61
2022/02/15 01:38:52;;;;;;;17.90;7.22;;;;;;;-1.97;60.51;101765.61;1656327;84;25801;-61
2022/02/15 01:41:19;;;;;;;16.37;6.97;;;;;;;-1.92;60.62;101758.92;1647444;85;26031;-61
2022/02/15 01:43:47;;;;;;;16.60;7.75;;;;;;;-1.86;60.53;101755.29;1656368;84;27515;-61
2022/02/15 01:46:15;;;;;;;14.13;8.03;;;;;;;-1.86;61.37;101764.06;1662773;85;26005;-61
2022/02/15 01:48:47;;;;;;;17.52;7.03;;;;;;;-1.90;62.17;101759.77;1666212;85;25734;-61
2022/02/15 01:51:17;;;;;;;24.77;6.10;;;;;;;-1.92;62.03;101758.45;1684774;82;26424;-61
2022/02/15 01:53:44;;;;;;;15.23;7.40;;;;;;;-1.96;62.80;101749.31;1685382;82;25736;-61
2022/02/15 01:56:13;;;;;;;16.32;6.65;;;;;;;-2.01;63.11;101753.83;1685391;82;28774;-62
2022/02/15 01:58:41;;;;;;;14.63;6.60;;;;;;;-2.01;62.66;101753.37;1685219;83;25719;-64
2022/02/15 02:01:10;;;;;;;18.75;6.20;;;;;;;-2.03;63.67;101751.23;1684584;85;25632;-62
2022/02/15 02:03:39;;;;;;;19.57;7.33;;;;;;;-2.07;64.28;101753.07;1674650;85;26587;-62
2022/02/15 02:06:06;;;;;;;14.13;6.78;;;;;;;-2.09;63.97;101756.61;1656719;84;25861;-61
2022/02/15 02:08:35;;;;;;;15.08;6.67;;;;;;;-2.11;63.85;101759.75;1656326;86;27471;-62
2022/02/15 02:11:04;;;;;;;16.35;6.22;;;;;;;-2.14;64.36;101759.34;1647372;86;25888;-61
2022/02/15 02:13:36;;;;;;;26.25;8.43;;;;;;;-2.16;64.24;101755.89;1655540;84;25836;-62
2022/02/15 02:16:06;;;;;;;18.25;7.10;;;;;;;-2.16;64.09;101753.25;1656137;86;25933;-61
2022/02/15 02:18:39;;;;;;;16.55;6.50;;;;;;;-2.15;63.85;101757.59;1662298;84;25665;-62
2022/02/15 02:21:07;;;;;;;15.78;6.95;;;;;;;-2.12;64.26;101755.37;1706087;83;27333;-61
2022/02/15 02:23:34;;;;;;;26.45;8.48;;;;;;;-2.13;64.29;101753.63;1708616;84;25713;-61
2022/02/15 02:26:03;;;;;;;13.00;7.15;;;;;;;-2.11;64.34;101763.70;1714345;82;26450;-62
2022/02/15 02:28:32;;;;;;;19.67;6.08;;;;;;;-2.09;64.95;101762.77;1715387;81;25829;-62
2022/02/15 02:30:59;;;;;;;17.25;6.83;;;;;;;-2.09;65.36;101756.18;1712342;83;25811;-61
2022/02/15 02:33:27;;;;;;;15.93;6.58;;;;;;;-2.11;64.51;101765.02;1708845;83;27487;-62
2022/02/15 02:36:01;;;;;;;19.50;6.15;;;;;;;-2.12;64.38;101772.05;1708800;84;26238;-62
2022/02/15 02:38:28;;;;;;;18.30;6.55;;;;;;;-2.14;64.49;101769.03;1708719;83;25822;-62
2022/02/15 02:40:56;;;;;;;15.08;6.47;;;;;;;-2.15;64.94;101764.19;1707704;83;25949;-61
2022/02/15 02:43:25;;;;;;;13.65;6.58;;;;;;;-2.12;64.78;101761.97;1708543;83;25836;-61
2022/02/15 02:45:53;;;;;;;14.63;5.95;;;;;;;-2.13;64.70;101769.45;1708158;83;28217;-61
2022/02/15 02:48:20;;;;;;;13.08;6.83;;;;;;;-2.16;64.97;101763.80;1715056;83;25522;-61
2022/02/15 02:50:47;;;;;;;16.65;6.42;;;;;;;-2.19;65.31;101761.21;1715309;83;25795;-61
2022/02/15 02:53:18;;;;;;;18.75;6.17;;;;;;;-2.24;65.60;101760.45;1706754;82;25765;-61
2022/02/15 02:55:46;;;;;;;12.20;6.60;;;;;;;-2.30;66.05;101757.47;1698663;83;25828;-61
2022/02/15 02:58:15;;;;;;;12.33;6.65;;;;;;;-2.36;65.82;101757.56;1701947;84;27490;-62
2022/02/15 03:00:42;;;;;;;16.77;7.45;;;;;;;-2.34;66.45;101761.05;1709055;83;25832;-61
2022/02/15 03:03:10;;;;;;;11.60;6.10;;;;;;;-2.31;65.81;101757.05;1708095;83;25808;-61
2022/02/15 03:05:39;;;;;;;13.05;6.40;;;;;;;-2.30;65.57;101760.54;1708920;83;26646;-62
2022/02/15 03:08:06;;;;;;;15.10;7.30;;;;;;;-2.30;65.41;101753.95;1709044;83;26190;-62
2022/02/15 03:10:33;;;;;;;14.40;6.85;;;;;;;-2.32;65.50;101757.94;1709176;83;27442;-61
2022/02/15 03:13:00;;;;;;;15.25;6.08;;;;;;;-2.37;66.33;101754.08;1697534;84;25698;-61
2022/02/15 03:15:28;;;;;;;14.60;5.70;;;;;;;-2.40;65.84;101757.22;1695223;84;25803;-62
2022/02/15 03:17:55;;;;;;;16.12;6.37;;;;;;;-2.42;66.41;101761.64;1695654;83;25767;-62
2022/02/15 03:20:22;;;;;;;17.57;7.25;;;;;;;-2.45;66.26;101756.42;1690039;83;25802;-61
2022/02/15 03:22:49;;;;;;;15.23;7.20;;;;;;;-2.46;66.73;101754.67;1684709;84;27504;-62
2022/02/15 03:25:17;;;;;;;13.22;5.87;;;;;;;-2.48;66.65;101752.55;1693406;83;25895;-61
2022/02/15 03:27:45;;;;;;;16.20;7.17;;;;;;;-2.50;67.31;101751.23;1692488;84;25849;-61
2022/02/15 03:30:11;;;;;;;17.20;6.58;;;;;;;-2.50;67.25;101759.59;1692406;84;25745;-61
2022/02/15 03:32:42;;;;;;;12.23;6.22;;;;;;;-2.54;67.99;101755.69;1691861;84;25721;-61
2022/02/15 03:35:10;;;;;;;14.43;6.28;;;;;;;-2.53;68.08;101753.48;1692436;84;27479;-62
2022/02/15 03:37:38;;;;;;;16.67;6.95;;;;;;;-2.53;68.06;101752.16;1692243;84;25462;-62
2022/02/15 03:40:08;;;;;;;19.77;7.60;;;;;;;-2.51;67.77;101748.20;1696539;84;25686;-62
2022/02/15 03:45:21;;;;;;;19.75;7.40;;;;;;;-2.51;68.32;101750.84;1694196;83;25997;-62
2022/02/15 03:48:07;;;;;;;20.02;6.87;;;;;;;-2.52;68.02;101759.64;1684827;83;27499;-62
2022/02/15 03:50:34;;;;;;;18.42;6.55;;;;;;;-2.53;67.99;101755.27;1661208;85;25805;-62
2022/02/15 03:53:02;;;;;;;15.78;7.72;;;;;;;-2.54;67.94;101749.11;1690180;84;25745;-62
2022/02/15 03:55:30;;;;;;;18.73;7.78;;;;;;;-2.56;68.19;101750.03;1698266;84;25782;-62
2022/02/15 03:57:57;;;;;;;18.12;6.90;;;;;;;-2.55;68.56;101747.83;1698061;84;25888;-62
2022/02/15 04:00:25;;;;;;;16.52;8.58;;;;;;;-2.53;68.26;101746.04;1697958;84;27496;-61
2022/02/15 04:02:55;;;;;;;18.27;6.75;;;;;;;-2.46;67.96;101754.25;1696100;84;25841;-62
2022/02/15 04:05:24;;;;;;;21.68;7.90;;;;;;;-2.42;67.59;101756.38;1698443;84;25686;-62
2022/02/15 04:07:51;;;;;;;14.60;6.90;;;;;;;-2.40;67.91;101759.39;1692938;84;25797;-62
2022/02/15 04:10:18;;;;;;;16.95;7.92;;;;;;;-2.37;68.58;101761.98;1692521;83;25805;-62
2022/02/15 04:12:46;;;;;;;19.20;8.20;;;;;;;-2.43;67.78;101762.53;1692694;84;27410;-62
2022/02/15 04:15:15;;;;;;;16.23;7.42;;;;;;;-2.46;67.81;101756.00;1692248;84;25805;-61
2022/02/15 04:17:44;;;;;;;16.52;7.40;;;;;;;-2.47;67.58;101762.19;1692151;84;25771;-62
2022/02/15 04:20:13;;;;;;;22.50;9.03;;;;;;;-2.41;67.72;101756.33;1695014;84;25742;-62
2022/02/15 04:22:43;;;;;;;18.27;7.15;;;;;;;-2.29;67.67;101756.58;1698649;84;25708;-62
2022/02/15 04:25:12;;;;;;;13.32;6.37;;;;;;;-2.18;67.48;101755.47;1690597;84;27492;-62
2022/02/15 04:27:40;;;;;;;16.67;6.80;;;;;;;-2.12;66.84;101760.19;1684019;85;25752;-62
2022/02/15 04:30:10;;;;;;;18.92;7.83;;;;;;;-2.12;66.62;101760.19;1684096;85;25955;-62
2022/02/15 04:32:38;;;;;;;20.15;9.60;;;;;;;-2.11;66.48;101757.11;1684341;85;26430;-62
2022/02/15 04:35:08;;;;;;;14.73;6.97;;;;;;;-2.14;66.58;101760.66;1696991;84;25464;-62
2022/02/15 04:37:36;;;;;;;20.55;8.20;;;;;;;-2.10;66.42;101753.13;1673638;84;27485;-61
2022/02/15 04:40:05;;;;;;;26.52;9.23;;;;;;;-2.08;66.22;101759.67;1698372;84;25765;-62
2022/02/15 04:42:32;;;;;;;19.42;7.15;;;;;;;-2.08;66.25;101759.23;1673632;84;25821;-62
2022/02/15 04:44:59;;;;;;;18.80;7.37;;;;;;;-2.15;65.98;101761.55;1697009;83;25804;-62
2022/02/15 04:47:28;;;;;;;19.95;7.30;;;;;;;-2.14;66.12;101759.80;1688730;84;25806;-62
2022/02/15 04:49:54;;;;;;;19.42;7.08;;;;;;;-2.12;66.21;101765.45;1690656;84;27470;-61
2022/02/15 04:52:23;;;;;;;13.00;6.60;;;;;;;-2.11;66.10;101765.02;1690726;84;25740;-62
2022/02/15 04:54:50;;;;;;;17.60;7.10;;;;;;;-2.12;66.45;101762.82;1696079;83;25808;-61
2022/02/15 04:57:18;;;;;;;20.92;7.70;;;;;;;-2.14;66.34;101760.66;1698457;84;25845;-61
2022/02/15 04:59:45;;;;;;;17.50;7.25;;;;;;;-2.18;66.58;101755.47;1693916;84;25773;-62
2022/02/15 05:02:13;;;;;;;15.58;7.50;;;;;;;-2.15;66.90;101771.24;1689644;84;27485;-61
2022/02/15 05:04:49;;;;;;;13.90;6.58;;;;;;;-2.10;66.64;101765.41;1690589;84;25802;-61
2022/02/15 05:07:19;;;;;;;17.52;7.75;;;;;;;-2.13;66.44;101771.63;1690678;84;25756;-62
2022/02/15 05:09:47;;;;;;;26.45;9.53;;;;;;;-2.14;66.42;101769.88;1690599;84;25812;-61
2022/02/15 05:12:16;;;;;;;30.50;11.68;;;;;;;-2.09;66.55;101776.39;1693976;84;25539;-62
2022/02/15 05:14:44;;;;;;;25.20;13.45;;;;;;;-2.04;66.55;101770.59;1698714;83;27436;-61
2022/02/15 05:17:13;;;;;;;29.80;12.68;;;;;;;-2.02;66.44;101774.50;1698416;84;26161;-61
2022/02/15 05:19:42;;;;;;;31.20;11.15;;;;;;;-1.95;66.38;101785.34;1699020;83;25825;-62
2022/02/15 05:22:09;;;;;;;28.70;11.22;;;;;;;-1.94;66.12;101786.66;1670846;84;25788;-62
2022/02/15 05:24:50;;;;;;;21.85;11.97;;;;;;;-2.00;66.01;101788.53;1663711;84;25846;-62
2022/02/15 05:27:18;;;;;;;23.62;12.58;;;;;;;-2.02;66.07;101789.89;1668669;86;27496;-61
2022/02/15 05:29:50;;;;;;;29.90;10.20;;;;;;;-2.03;65.96;101780.67;1668647;84;25753;-62
2022/02/15 05:32:18;;;;;;;26.20;10.00;;;;;;;-2.01;65.97;101789.43;1668946;83;25835;-61
2022/02/15 05:34:46;;;;;;;24.55;8.45;;;;;;;-2.02;65.83;101788.58;1668453;85;25795;-62
2022/02/15 05:37:15;;;;;;;26.07;9.30;;;;;;;-2.03;65.92;101789.91;1667877;86;25768;-61
2022/02/15 05:39:43;;;;;;;28.98;10.60;;;;;;;-2.08;65.61;101792.63;1668375;85;28232;-62
2022/02/15 05:42:11;;;;;;;15.63;9.03;;;;;;;-2.07;65.79;101788.66;1668753;85;25772;-61
2022/02/15 05:44:38;;;;;;;24.12;8.88;;;;;;;-2.05;65.84;101793.90;1668319;85;25753;-60
2022/02/15 05:47:07;;;;;;;35.52;10.78;;;;;;;-2.01;65.86;101790.75;1656123;86;25961;-62
2022/02/15 05:50:49;;;;;;;31.75;14.35;;;;;;;-1.97;65.75;101790.66;1656870;85;25951;-62
2022/02/15 05:52:07;;;;;;;29.15;11.88;;;;;;;-1.92;65.82;101794.52;1652736;86;27508;-62
2022/02/15 05:54:34;;;;;;;38.38;12.43;;;;;;;-1.84;65.80;101796.55;1656518;85;27360;-61
2022/02/15 05:57:03;;;;;;;22.73;10.98;;;;;;;-1.81;65.56;101801.78;1655632;85;25711;-61
2022/02/15 05:59:32;;;;;;;27.37;13.45;;;;;;;-1.81;65.31;101797.82;1660628;86;25841;-62
2022/02/15 06:02:04;;;;;;;31.27;13.05;;;;;;;-1.79;65.30;101800.42;1668087;85;25778;-62
2022/02/15 06:04:38;;;;;;;29.98;14.83;;;;;;;-1.74;65.55;101807.77;1657120;85;27380;-61
2022/02/15 06:07:07;;;;;;;35.68;14.68;;;;;;;-1.67;65.62;101806.77;1660264;85;25493;-62
2022/02/15 06:09:34;;;;;;;30.77;14.53;;;;;;;-1.62;65.43;101800.94;1656550;85;25713;-62
2022/02/15 06:12:01;;;;;;;42.25;17.82;;;;;;;-1.55;65.51;101800.36;1656494;86;25804;-61
2022/02/15 06:14:30;;;;;;;34.98;15.32;;;;;;;-1.47;65.38;101808.98;1655860;86;25765;-61
2022/02/15 06:16:57;;;;;;;33.10;14.45;;;;;;;-1.43;65.24;101806.67;1656408;86;27515;-61
2022/02/15 06:19:26;;;;;;;46.05;21.55;;;;;;;-1.44;64.77;101802.33;1666842;85;25673;-62
2022/02/15 06:21:53;;;;;;;46.25;19.67;;;;;;;-1.35;65.17;101808.30;1658048;83;25849;-62
2022/02/15 06:24:25;;;;;;;38.60;13.28;;;;;;;-1.21;65.69;101807.53;1659948;84;25777;-61
2022/02/15 06:26:54;;;;;;;32.33;12.65;;;;;;;-1.13;65.26;101805.58;1669439;83;25783;-61
2022/02/15 06:29:23;;;;;;;33.70;13.20;;;;;;;-1.11;65.15;101801.14;1669502;84;27347;-61
2022/02/15 06:31:52;;;;;;;27.62;12.73;;;;;;;-1.05;65.01;101812.02;1668533;83;25902;-61
2022/02/15 06:34:20;;;;;;;33.67;13.93;;;;;;;-1.01;64.92;101799.14;1668715;86;25781;-60
2022/02/15 06:36:48;;;;;;;67.08;14.30;;;;;;;-0.96;65.03;101806.52;1668402;85;25819;-61
2022/02/15 06:39:16;;;;;;;37.60;13.30;;;;;;;-0.91;64.88;101805.52;1668852;85;25698;-61
2022/02/15 06:41:45;;;;;;;31.80;9.98;;;;;;;-0.86;64.83;101792.63;1668850;85;28220;-61
2022/02/15 06:44:14;;;;;;;31.10;10.65;;;;;;;-0.92;64.88;101790.58;1667474;85;25836;-61
2022/02/15 06:46:42;;;;;;;21.80;9.25;;;;;;;-0.91;65.35;101792.31;1667237;85;25817;-61
2022/02/15 06:49:15;;;;;;;64.75;11.03;;;;;;;-0.85;65.29;101790.40;1668732;85;25917;-61
2022/02/15 06:51:43;;;;;;;22.35;9.38;;;;;;;-0.83;65.33;101779.34;1668633;85;25502;-61
2022/02/15 06:54:12;;;;;;;25.68;11.35;;;;;;;-0.79;65.29;101779.67;1667919;85;27534;-61
2022/02/15 06:56:46;;;;;;;22.35;10.63;;;;;;;-0.74;65.38;101778.23;1667366;85;26107;-62
2022/02/15 06:59:14;;;;;;;23.55;11.80;;;;;;;-0.71;65.91;101778.17;1667971;85;25826;-62
2022/02/15 07:01:43;;;;;;;25.37;12.05;;;;;;;-0.65;65.81;101778.00;1669002;84;25755;-61
2022/02/15 07:04:12;;;;;;;46.95;13.18;;;;;;;-0.56;65.83;101778.67;1658766;84;25840;-61
2022/02/15 07:06:39;;;;;;;40.08;14.20;;;;;;;-0.48;66.46;101771.41;1663795;86;27451;-61
2022/02/15 07:09:07;;;;;;;28.50;12.35;;;;;;;-0.43;66.90;101774.81;1666984;86;26340;-61
2022/02/15 07:11:36;;;;;;;24.47;11.68;;;;;;;-0.36;66.84;101760.52;1666213;85;25782;-61
2022/02/15 07:14:03;;;;;;;29.15;11.57;;;;;;;-0.24;66.99;101768.56;1668671;86;27879;-61
2022/02/15 07:16:31;;;;;;;27.93;12.65;;;;;;;-0.16;66.58;101766.58;1663892;84;25727;-61
2022/02/15 07:18:59;;;;;;;28.77;12.23;;;;;;;-0.10;66.84;101762.05;1665108;84;27496;-61
2022/02/15 07:21:30;;;;;;;20.15;10.63;;;;;;;-0.05;66.92;101764.97;1663292;84;25717;-61
2022/02/15 07:24:12;;;;;;;27.93;10.68;;;;;;;0.02;66.87;101757.70;1655012;83;25497;-60
2022/02/15 07:26:43;;;;;;;26.57;12.40;;;;;;;0.12;66.65;101760.97;1680716;84;25878;-61
2022/02/15 07:29:10;;;;;;;27.13;11.25;;;;;;;0.20;67.57;101756.32;1685120;85;25824;-61
2022/02/15 07:31:39;;;;;;;28.07;11.05;;;;;;;0.32;67.57;101757.73;1688731;84;28147;-61
2022/02/15 07:34:06;;;;;;;27.15;10.30;;;;;;;0.38;67.41;101748.27;1694944;84;25729;-61
2022/02/15 07:36:35;;;;;;;31.65;11.45;;;;;;;0.47;67.14;101751.11;1694553;84;25740;-61
2022/02/15 07:39:03;;;;;;;34.10;11.88;;;;;;;0.57;67.13;101755.22;1695305;84;26433;-61
2022/02/15 07:41:30;;;;;;;21.15;10.40;;;;;;;0.68;67.25;101750.02;1695034;83;25941;-61
2022/02/15 07:43:58;;;;;;;25.97;11.78;;;;;;;0.82;66.92;101758.84;1695311;84;27683;-61
2022/02/15 07:46:25;;;;;;;26.55;11.00;;;;;;;0.96;67.24;101754.44;1681222;85;25521;-61
2022/02/15 07:48:52;;;;;;;25.50;11.30;;;;;;;1.05;67.28;101758.11;1685611;84;25690;-61
2022/02/15 07:51:19;;;;;;;34.23;10.85;;;;;;;1.18;66.77;101751.94;1685179;83;25797;-61
2022/02/15 07:53:46;;;;;;;20.32;10.25;;;;;;;1.31;66.50;101757.25;1688870;84;26096;-61
2022/02/15 07:56:12;;;;;;;29.45;11.60;;;;;;;1.46;66.36;101755.87;1689353;84;27483;-61
2022/02/15 07:58:39;;;;;;;24.57;9.88;;;;;;;1.55;66.10;101754.66;1691688;84;25793;-59
2022/02/15 08:01:06;;;;;;;21.75;10.93;;;;;;;1.61;65.86;101758.45;1694905;84;25924;-59
2022/02/15 08:03:33;;;;;;;27.55;10.93;;;;;;;1.75;65.91;101758.41;1695363;84;25657;-59
2022/02/15 08:06:00;;;;;;;30.02;12.18;;;;;;;1.88;65.84;101756.58;1695090;84;25722;-59
2022/02/15 08:08:27;;;;;;;33.60;11.90;;;;;;;1.97;65.63;101754.51;1695476;84;27429;-59
2022/02/15 08:10:56;;;;;;;21.55;10.08;;;;;;;2.08;65.37;101752.77;1696223;84;25772;-59
2022/02/15 08:13:23;;;;;;;29.27;11.35;;;;;;;2.21;65.37;101753.18;1696049;84;25715;-59
2022/02/15 08:15:51;;;;;;;24.92;11.28;;;;;;;2.33;65.09;101751.40;1696000;84;25785;-58
2022/02/15 08:18:19;;;;;;;28.83;11.55;;;;;;;2.46;64.71;101742.49;1696059;84;25737;-59
2022/02/15 08:20:46;;;;;;;30.45;12.03;;;;;;;2.50;64.55;101737.48;1696113;84;27496;-58
2022/02/15 08:23:12;;;;;;;30.35;11.83;;;;;;;2.57;64.27;101738.96;1697611;83;25785;-59
2022/02/15 08:25:42;;;;;;;32.10;11.68;;;;;;;2.74;64.16;101740.08;1706767;83;25789;-59
2022/02/15 08:28:12;;;;;;;37.65;11.88;;;;;;;2.87;63.69;101741.77;1697454;83;26572;-58
2022/02/15 08:30:37;;;;;;;23.32;11.88;;;;;;;2.97;63.51;101737.34;1684426;84;25679;-59
2022/02/15 08:33:04;;;;;;;22.98;11.25;;;;;;;3.13;63.40;101741.56;1696265;84;27471;-58
2022/02/15 08:35:31;;;;;;;27.27;11.50;;;;;;;3.31;62.92;101736.39;1698043;84;25773;-58
2022/02/15 08:38:00;;;;;;;27.32;13.08;;;;;;;3.46;62.43;101733.55;1698235;84;25766;-58
2022/02/15 08:40:28;;;;;;;26.68;11.80;;;;;;;3.56;62.16;101735.33;1697411;83;25782;-58
2022/02/15 08:42:55;;;;;;;34.67;13.10;;;;;;;3.70;61.96;101731.61;1697723;84;25731;-59
2022/02/15 08:45:28;;;;;;;34.48;13.48;;;;;;;3.90;61.75;101730.70;1698366;83;27468;-58
2022/02/15 08:47:55;;;;;;;31.90;12.40;;;;;;;4.06;61.02;101732.66;1709124;82;26224;-59
2022/02/15 08:50:21;;;;;;;22.73;11.78;;;;;;;4.17;60.42;101733.05;1709175;83;25704;-58
2022/02/15 08:52:48;;;;;;;25.30;12.15;;;;;;;4.29;60.20;101729.42;1709302;82;26346;-58
2022/02/15 08:55:16;;;;;;;22.07;11.40;;;;;;;4.46;59.93;101737.94;1687217;83;25847;-59
2022/02/15 08:57:43;;;;;;;28.47;11.50;;;;;;;4.66;59.32;101735.19;1686087;83;27493;-59
2022/02/15 09:00:14;;;;;;;25.37;11.68;;;;;;;4.77;58.38;101739.14;1684627;85;25903;-58
2022/02/15 09:02:40;;;;;;;31.90;12.33;;;;;;;4.91;57.94;101736.65;1684352;84;25682;-58
2022/02/15 09:05:09;;;;;;;38.17;13.13;;;;;;;5.10;56.93;101738.41;1688003;84;26494;-58
2022/02/15 09:07:36;;;;;;;21.87;11.73;;;;;;;5.26;56.12;101728.67;1684606;85;25780;-58
2022/02/15 09:10:05;;;;;;;31.87;13.43;;;;;;;5.47;56.04;101727.19;1720195;82;28166;-58
2022/02/15 09:12:33;;;;;;;21.25;11.25;;;;;;;5.70;55.73;101725.11;1692833;84;25713;-58
2022/02/15 09:15:00;;;;;;;27.32;12.18;;;;;;;5.92;54.73;101726.16;1692187;84;25732;-58
2022/02/15 09:17:27;;;;;;;22.65;12.28;;;;;;;6.21;53.83;101727.31;1678814;83;26414;-58
2022/02/15 09:19:53;;;;;;;24.37;12.55;;;;;;;6.54;52.25;101722.84;1705332;82;25768;-58
2022/02/15 09:22:20;;;;;;;22.82;11.85;;;;;;;6.93;51.29;101736.70;1703819;83;28334;-58
2022/02/15 09:24:47;;;;;;;22.27;11.73;;;;;;;7.63;49.82;101728.10;1719878;81;26286;-58
2022/02/15 09:27:14;;;;;;;21.12;12.73;;;;;;;7.56;49.05;101730.77;1712556;82;25610;-58
2022/02/15 09:29:40;;;;;;;33.55;11.97;;;;;;;7.00;49.26;101738.06;1706743;83;25840;-58
2022/02/15 09:32:08;;;;;;;32.63;12.95;;;;;;;6.46;50.30;101745.98;1704729;83;25630;-58
2022/02/15 09:34:35;;;;;;;32.60;13.18;;;;;;;6.06;51.11;101739.69;1725497;82;27486;-58
2022/02/15 09:37:02;;;;;;;30.45;12.37;;;;;;;5.76;52.02;101739.49;1729236;82;25800;-58
2022/02/15 09:39:30;;;;;;;23.87;11.50;;;;;;;5.46;52.73;101746.36;1673729;82;25749;-58
2022/02/15 09:41:58;;;;;;;23.22;12.53;;;;;;;5.25;53.35;101734.10;1707161;82;25812;-58
2022/02/15 09:44:25;;;;;;;22.62;13.13;;;;;;;5.05;54.02;101734.63;1705999;83;26006;-58
2022/02/15 09:46:54;;;;;;;33.18;12.75;;;;;;;4.95;54.33;101739.57;1707753;83;28487;-58
2022/02/15 09:52:12;;;;;;;43.68;14.60;;;;;;;4.90;54.77;101733.58;1729011;81;25682;-58
2022/02/15 09:54:42;;;;;;;28.80;12.43;;;;;;;4.89;55.12;101732.34;1700770;82;25924;-58
2022/02/15 09:57:10;;;;;;;30.72;14.05;;;;;;;4.92;55.19;101725.05;1692855;84;25528;-59
2022/02/15 10:04:01;;;;;;;24.77;13.53;;;;;;;4.79;55.25;101724.79;1720787;82;25731;-58
2022/02/15 10:06:31;;;;;;;37.13;13.85;;;;;;;4.93;55.51;101715.27;1703530;82;34795;-58
2022/02/15 10:09:01;;;;;;;35.30;14.60;;;;;;;5.04;55.31;101708.89;1707364;83;25760;-57
2022/02/15 10:11:42;;;;;;;27.02;13.83;;;;;;;5.15;54.96;101710.56;1715320;82;25763;-58
2022/02/15 10:14:10;;;;;;;36.68;14.43;;;;;;;5.22;54.79;101708.45;1694939;83;27507;-57
2022/02/15 10:16:50;;;;;;;31.00;14.25;;;;;;;5.30;55.10;101700.03;1706867;84;25716;-58
2022/02/15 10:19:29;;;;;;;31.45;13.53;;;;;;;5.46;55.04;101689.44;1722716;82;25826;-57
2022/02/15 10:22:01;;;;;;;27.45;14.05;;;;;;;5.66;54.61;101683.52;1730745;82;25829;-57
2022/02/15 10:24:32;;;;;;;35.58;14.93;;;;;;;5.77;54.21;101684.66;1723204;82;25677;-57
2022/02/15 10:27:08;;;;;;;27.27;14.15;;;;;;;5.84;53.76;101668.30;1685940;84;27487;-58
2022/02/15 10:29:38;;;;;;;34.43;16.20;;;;;;;5.86;53.80;101669.97;1697927;82;25717;-57
2022/02/15 10:32:11;;;;;;;30.27;14.87;;;;;;;5.99;53.69;101659.50;1721332;82;25482;-57
2022/02/15 10:34:53;;;;;;;31.20;15.55;;;;;;;6.19;53.27;101658.84;1736957;82;25820;-57
2022/02/15 10:37:23;;;;;;;29.45;15.13;;;;;;;6.20;53.52;101654.78;1737320;82;25835;-57
2022/02/15 10:39:59;;;;;;;32.38;15.25;;;;;;;6.30;53.05;101648.91;1732484;82;27492;-57
2022/02/15 10:42:30;;;;;;;31.62;15.63;;;;;;;6.37;52.56;101651.13;1725967;82;25770;-57
2022/02/15 10:45:08;;;;;;;30.00;15.18;;;;;;;6.59;52.14;101644.56;1676956;84;25850;-57
2022/02/15 10:47:42;;;;;;;27.45;14.23;;;;;;;6.69;51.80;101646.22;1708629;82;26421;-57
2022/02/15 10:50:13;;;;;;;37.73;14.90;;;;;;;6.88;51.60;101641.52;1709194;82;25994;-57
2022/02/15 10:52:41;;;;;;;28.07;15.18;;;;;;;7.02;51.39;101639.36;1699481;82;27091;-57
2022/02/15 10:55:11;;;;;;;26.93;14.53;;;;;;;7.27;51.07;101638.36;1720025;82;25759;-58
2022/02/15 10:57:40;;;;;;;34.27;15.25;;;;;;;7.60;49.67;101642.12;1723975;82;25759;-57
2022/02/15 11:00:11;;;;;;;31.90;14.55;;;;;;;7.48;49.18;101633.50;1733861;82;25784;-57
2022/02/15 11:02:40;;;;;;;34.08;16.17;;;;;;;7.36;49.19;101631.95;1737385;82;25773;-58
2022/02/15 11:05:11;;;;;;;35.68;15.78;;;;;;;7.42;49.58;101628.53;1698761;82;27539;-58
2022/02/15 11:07:39;;;;;;;30.82;16.60;;;;;;;8.21;49.41;101629.80;1698622;84;25857;-58
2022/02/15 11:10:27;;;;;;;30.40;15.78;;;;;;;8.72;49.40;101625.15;1698889;82;25768;-58
2022/02/15 11:13:01;;;;;;;36.55;16.70;;;;;;;8.87;47.93;101622.38;1711237;82;25821;-57
2022/02/15 11:15:31;;;;;;;34.13;15.75;;;;;;;8.98;47.83;101615.81;1690670;83;25529;-57
2022/02/15 11:18:01;;;;;;;29.57;14.45;;;;;;;8.96;47.20;101612.36;1691709;84;29714;-57
2022/02/15 11:20:50;;;;;;;26.75;15.48;;;;;;;9.15;47.26;101610.60;1700582;82;25685;-57
2022/02/15 11:23:01;;;;;;;30.32;14.80;;;;;;;9.98;46.40;101597.16;1731102;81;25825;-57
2022/02/15 11:25:37;;;;;;;42.33;14.10;;;;;;;10.17;44.09;101596.66;1707343;83;25790;-56
2022/02/15 11:28:14;;;;;;;22.62;13.65;;;;;;;10.48;43.69;101591.72;1709371;83;25724;-57
2022/02/15 11:30:55;;;;;;;26.30;12.85;;;;;;;11.03;43.09;101587.60;1706191;82;27482;-56
2022/02/15 11:33:29;;;;;;;26.20;13.25;;;;;;;11.54;43.31;101593.89;1687052;82;25818;-56